createdAt,value
2023-04-18T00:00:43.321Z,14.68
2023-04-18T00:03:10.459Z,14.30
2023-04-18T00:05:37.967Z,15.13
2023-04-18T00:08:05.487Z,14.25
2023-04-18T00:10:32.833Z,14.80
2023-04-18T00:13:00.427Z,15.00
2023-04-18T00:15:29.189Z,15.15
2023-04-18T00:17:56.841Z,15.93
2023-04-18T00:20:26.157Z,16.77
2023-04-18T00:22:53.199Z,18.48
2023-04-18T00:25:20.200Z,17.75
2023-04-18T00:27:47.102Z,16.70
2023-04-18T00:30:14.506Z,16.30
2023-04-18T00:32:41.529Z,16.33
2023-04-18T00:35:08.872Z,17.25
2023-04-18T00:37:35.875Z,15.77
2023-04-18T00:40:02.980Z,16.50
2023-04-18T00:42:29.869Z,16.52
2023-04-18T00:44:56.829Z,16.25
2023-04-18T00:47:23.814Z,15.93
2023-04-18T00:49:50.796Z,16.73
2023-04-18T00:52:19.258Z,16.42
2023-04-18T00:54:47.610Z,16.10
2023-04-18T00:57:15.127Z,16.90
2023-04-18T00:59:42.941Z,16.02
2023-04-18T01:02:09.931Z,16.40
2023-04-18T01:04:37.360Z,18.10
2023-04-18T01:07:05.392Z,17.25
2023-04-18T01:09:32.462Z,17.08
2023-04-18T01:11:59.407Z,15.57
2023-04-18T01:14:26.373Z,17.10
2023-04-18T01:16:53.284Z,16.45
2023-04-18T01:19:20.188Z,16.10
2023-04-18T01:21:47.225Z,16.67
2023-04-18T01:24:16.912Z,17.02
2023-04-18T01:26:49.576Z,16.30
2023-04-18T01:29:16.555Z,17.60
2023-04-18T01:31:43.468Z,16.00
2023-04-18T01:34:10.448Z,17.00
2023-04-18T01:36:38.992Z,16.17
2023-04-18T01:39:07.096Z,16.20
2023-04-18T01:41:34.005Z,16.38
2023-04-18T01:44:01.328Z,16.38
2023-04-18T01:46:29.001Z,16.60
2023-04-18T01:48:57.127Z,17.20
2023-04-18T01:51:24.082Z,17.60
2023-04-18T01:53:51.182Z,18.30
2023-04-18T01:56:18.184Z,18.75
2023-04-18T01:58:45.093Z,18.83
2023-04-18T02:01:12.116Z,18.60
2023-04-18T02:03:39.984Z,18.27
2023-04-18T02:06:07.682Z,19.15
2023-04-18T02:08:35.941Z,19.38
2023-04-18T02:11:03.581Z,16.85
2023-04-18T02:13:31.024Z,16.52
2023-04-18T02:15:58.016Z,16.77
2023-04-18T02:18:26.563Z,17.48
2023-04-18T02:20:53.634Z,15.88
2023-04-18T02:23:20.610Z,17.08
2023-04-18T02:25:47.634Z,17.40
2023-04-18T02:28:14.533Z,16.17
2023-04-18T02:30:41.417Z,16.88
2023-04-18T02:33:08.596Z,16.10
2023-04-18T02:35:37.459Z,17.27
2023-04-18T02:38:04.522Z,16.50
2023-04-18T02:40:31.416Z,18.02
2023-04-18T02:42:58.411Z,17.23
2023-04-18T02:45:25.342Z,17.38
2023-04-18T02:47:56.060Z,17.23
2023-04-18T02:50:27.225Z,17.55
2023-04-18T02:52:54.083Z,16.83
2023-04-18T02:55:21.986Z,17.25
2023-04-18T02:57:49.065Z,17.80
2023-04-18T03:00:16.129Z,17.85
2023-04-18T03:02:43.249Z,17.77
2023-04-18T03:05:10.352Z,17.70
2023-04-18T03:07:37.286Z,17.42
2023-04-18T03:10:04.710Z,16.90
2023-04-18T03:12:31.674Z,16.23
2023-04-18T03:14:58.667Z,16.77
2023-04-18T03:17:25.775Z,16.80
2023-04-18T03:19:52.664Z,16.48
2023-04-18T03:22:19.675Z,16.48
2023-04-18T03:24:46.560Z,18.55
2023-04-18T03:27:13.899Z,16.98
2023-04-18T03:29:40.848Z,15.48
2023-04-18T03:32:07.759Z,16.38
2023-04-18T03:34:34.628Z,17.23
2023-04-18T03:37:01.497Z,16.05
2023-04-18T03:39:28.384Z,16.95
2023-04-18T03:41:55.283Z,17.23
2023-04-18T03:44:22.148Z,17.42
2023-04-18T03:46:49.298Z,16.23
2023-04-18T03:49:16.169Z,17.10
2023-04-18T03:51:48.980Z,16.65
2023-04-18T03:54:17.233Z,16.70
2023-04-18T03:56:45.118Z,16.55
2023-04-18T03:59:12.535Z,16.83
2023-04-18T04:01:39.489Z,16.50
2023-04-18T04:04:06.764Z,17.95
2023-04-18T04:06:33.846Z,17.70
2023-04-18T04:09:01.158Z,18.20
2023-04-18T04:11:28.056Z,18.45
2023-04-18T04:13:54.993Z,17.75
2023-04-18T04:16:22.015Z,18.75
2023-04-18T04:18:48.960Z,19.98
2023-04-18T04:21:15.910Z,19.27
2023-04-18T04:23:46.258Z,18.80
2023-04-18T04:26:15.107Z,18.05
2023-04-18T04:28:42.891Z,16.90
2023-04-18T04:31:10.475Z,18.23
2023-04-18T04:33:38.987Z,18.08
2023-04-18T04:36:09.690Z,18.25
2023-04-18T04:38:40.548Z,21.20
2023-04-18T04:41:07.875Z,18.67
2023-04-18T04:43:34.880Z,18.52
2023-04-18T04:46:04.488Z,19.08
2023-04-18T04:48:31.435Z,20.25
2023-04-18T04:51:00.163Z,19.80
2023-04-18T04:53:32.407Z,18.65
2023-04-18T04:55:59.443Z,18.85
2023-04-18T04:58:26.740Z,19.00
2023-04-18T05:00:53.925Z,19.52
2023-04-18T05:03:21.277Z,18.60
2023-04-18T05:05:48.803Z,18.05
2023-04-18T05:08:15.778Z,18.08
2023-04-18T05:10:43.349Z,17.00
2023-04-18T05:13:10.389Z,17.90
2023-04-18T05:15:37.550Z,17.35
2023-04-18T05:18:04.696Z,17.83
2023-04-18T05:20:31.802Z,16.70
2023-04-18T05:22:58.707Z,16.42
2023-04-18T05:25:25.845Z,15.70
2023-04-18T05:27:52.772Z,16.55
2023-04-18T05:30:19.667Z,17.55
2023-04-18T05:32:46.743Z,19.15
2023-04-18T05:35:13.826Z,19.20
2023-04-18T05:37:40.900Z,18.15
2023-04-18T05:40:09.335Z,19.95
2023-04-18T05:42:36.341Z,19.80
2023-04-18T05:45:03.306Z,20.70
2023-04-18T05:47:30.458Z,22.20
2023-04-18T05:49:57.377Z,23.15
2023-04-18T05:52:26.096Z,24.38
2023-04-18T05:54:53.323Z,24.70
2023-04-18T05:57:20.384Z,23.95
2023-04-18T05:59:47.280Z,24.58
2023-04-18T06:02:15.540Z,21.95
2023-04-18T06:04:43.166Z,22.80
2023-04-18T06:07:10.484Z,21.73
2023-04-18T06:09:37.517Z,20.60
2023-04-18T06:12:04.754Z,18.25
2023-04-18T06:14:32.015Z,16.58
2023-04-18T06:16:58.995Z,19.65
2023-04-18T06:19:26.105Z,19.85
2023-04-18T06:21:53.917Z,19.20
2023-04-18T06:24:21.153Z,18.98
2023-04-18T06:26:48.086Z,17.75
2023-04-18T06:29:14.960Z,18.35
2023-04-18T06:31:42.270Z,18.55
2023-04-18T06:34:09.460Z,18.05
2023-04-18T06:36:36.380Z,18.80
2023-04-18T06:39:03.850Z,19.60
2023-04-18T06:41:31.568Z,19.33
2023-04-18T06:46:28.378Z,18.42
2023-04-18T06:48:55.319Z,17.40
2023-04-18T06:51:22.239Z,17.70
2023-04-18T06:53:52.537Z,16.63
2023-04-18T06:56:23.061Z,15.73
2023-04-18T06:58:50.000Z,14.57
2023-04-18T07:01:17.071Z,16.48
2023-04-18T07:03:44.351Z,16.52
2023-04-18T07:06:11.617Z,16.02
2023-04-18T07:08:38.686Z,16.13
2023-04-18T07:11:06.667Z,16.15
2023-04-18T07:13:33.626Z,16.15
2023-04-18T07:16:01.477Z,15.82
2023-04-18T07:18:37.326Z,15.73
2023-04-18T07:21:09.093Z,16.13
2023-04-18T07:23:36.603Z,17.15
2023-04-18T07:26:05.729Z,14.80
2023-04-18T07:28:33.340Z,14.38
2023-04-18T07:31:01.317Z,14.40
2023-04-18T07:33:31.699Z,14.98
2023-04-18T07:35:58.827Z,14.60
2023-04-18T07:38:26.886Z,15.13
2023-04-18T07:40:58.950Z,12.80
2023-04-18T07:43:26.292Z,13.25
2023-04-18T07:45:54.265Z,13.57
2023-04-18T07:48:25.405Z,13.43
2023-04-18T07:50:53.188Z,14.23
2023-04-18T07:53:20.266Z,13.75
2023-04-18T07:55:47.367Z,13.77
2023-04-18T07:58:14.610Z,13.45
2023-04-18T08:00:43.851Z,13.98
2023-04-18T08:03:12.332Z,14.63
2023-04-18T08:05:41.837Z,13.75
2023-04-18T08:08:11.733Z,14.10
2023-04-18T08:10:38.943Z,13.60
2023-04-18T08:13:06.944Z,13.57
2023-04-18T08:15:34.074Z,13.35
2023-04-18T08:18:01.947Z,14.35
2023-04-18T08:20:29.117Z,13.57
2023-04-18T08:25:27.097Z,13.52
2023-04-18T08:27:54.040Z,14.43
2023-04-18T08:30:21.340Z,14.02
2023-04-18T08:32:49.352Z,14.82
2023-04-18T08:35:16.579Z,15.85
2023-04-18T08:37:43.659Z,14.43
2023-04-18T08:40:10.971Z,13.50
2023-04-18T08:42:38.741Z,13.90
2023-04-18T08:45:07.049Z,13.98
2023-04-18T08:47:35.771Z,14.00
2023-04-18T08:50:02.685Z,13.95
2023-04-18T08:52:31.123Z,14.30
2023-04-18T08:54:58.046Z,13.65
2023-04-18T08:57:26.999Z,13.35
2023-04-18T08:59:54.411Z,13.50
2023-04-18T09:02:28.507Z,14.90
2023-04-18T09:04:55.851Z,14.27
2023-04-18T09:07:31.508Z,14.13
2023-04-18T09:09:58.427Z,15.43
2023-04-18T09:12:27.887Z,14.15
2023-04-18T09:15:09.410Z,14.60
2023-04-18T09:17:43.669Z,15.32
2023-04-18T09:20:12.497Z,16.15
2023-04-18T09:22:51.843Z,15.20
2023-04-18T09:25:29.662Z,15.57
2023-04-18T09:28:00.828Z,15.20
2023-04-18T09:30:34.491Z,14.27
2023-04-18T09:33:06.591Z,13.98
2023-04-18T09:35:34.635Z,14.07
2023-04-18T09:38:01.880Z,15.10
2023-04-18T09:40:29.219Z,14.80
2023-04-18T09:42:56.483Z,14.63
2023-04-18T09:45:25.050Z,16.33
2023-04-18T09:47:53.735Z,15.90
2023-04-18T09:50:20.828Z,16.35
2023-04-18T09:52:48.707Z,15.13
2023-04-18T09:55:18.971Z,14.93
2023-04-18T09:57:48.684Z,15.20
2023-04-18T10:00:25.538Z,14.85
2023-04-18T10:03:00.530Z,16.08
2023-04-18T10:05:33.679Z,15.52
2023-04-18T10:10:28.607Z,17.15
2023-04-18T10:12:58.440Z,20.02
2023-04-18T10:15:28.389Z,22.33
2023-04-18T10:18:09.134Z,19.90
2023-04-18T10:20:36.401Z,22.13
2023-04-18T10:23:40.863Z,20.15
2023-04-18T10:26:11.627Z,18.30
2023-04-18T10:28:57.246Z,15.52
2023-04-18T10:31:27.099Z,15.85
2023-04-18T10:34:04.515Z,15.63
2023-04-18T10:37:06.033Z,15.07
2023-04-18T10:39:58.545Z,21.77
2023-04-18T10:42:47.055Z,32.92
2023-04-18T10:45:22.896Z,19.30
2023-04-18T10:47:50.635Z,16.70
2023-04-18T10:50:17.794Z,14.88
2023-04-18T10:52:44.859Z,15.77
2023-04-18T10:55:28.821Z,13.77
2023-04-18T10:57:58.582Z,14.40
2023-04-18T11:00:26.407Z,14.40
2023-04-18T11:02:57.667Z,15.05
2023-04-18T11:05:28.537Z,14.10
2023-04-18T11:07:55.774Z,27.98
2023-04-18T11:10:26.663Z,14.65
2023-04-18T11:12:56.513Z,13.88
2023-04-18T11:15:25.537Z,15.70
2023-04-18T11:18:04.319Z,15.98
2023-04-18T11:20:40.915Z,14.80
2023-04-18T11:23:21.552Z,15.77
2023-04-18T11:25:54.454Z,15.52
2023-04-18T11:28:24.757Z,15.18
2023-04-18T11:30:51.725Z,13.45
2023-04-18T11:33:18.751Z,13.75
2023-04-18T11:35:46.869Z,13.52
2023-04-18T11:38:16.061Z,14.15
2023-04-18T11:40:50.681Z,13.25
2023-04-18T11:43:25.348Z,14.32
2023-04-18T11:45:58.079Z,13.85
2023-04-18T11:48:38.091Z,13.05
2023-04-18T11:51:07.481Z,12.80
2023-04-18T11:53:38.947Z,13.52
2023-04-18T11:56:06.664Z,13.02
2023-04-18T11:58:35.487Z,13.20
2023-04-18T12:01:24.692Z,13.05
2023-04-18T12:04:08.652Z,13.23
2023-04-18T12:06:50.387Z,12.70
2023-04-18T12:09:18.974Z,13.52
2023-04-18T12:12:01.612Z,12.82
2023-04-18T12:14:29.548Z,12.93
2023-04-18T12:16:56.535Z,14.00
2023-04-18T12:19:28.204Z,12.43
2023-04-18T12:22:09.942Z,13.05
2023-04-18T12:24:37.943Z,13.73
2023-04-18T12:27:05.146Z,12.40
2023-04-18T12:29:32.052Z,13.05
2023-04-18T12:31:58.961Z,13.02
2023-04-18T12:34:25.989Z,13.82
2023-04-18T12:36:53.742Z,13.68
2023-04-18T12:39:20.600Z,16.02
2023-04-18T12:41:49.614Z,13.30
2023-04-18T12:44:16.826Z,13.38
2023-04-18T12:46:43.809Z,14.18
2023-04-18T12:49:10.803Z,14.70
2023-04-18T12:51:37.692Z,14.32
2023-04-18T12:54:04.758Z,14.75
2023-04-18T12:56:31.784Z,14.77
2023-04-18T12:58:58.632Z,14.55
2023-04-18T13:01:25.741Z,13.43
2023-04-18T13:04:04.062Z,15.07
2023-04-18T13:06:38.429Z,16.20
2023-04-18T13:09:05.445Z,13.63
2023-04-18T13:11:32.295Z,14.25
2023-04-18T13:13:59.791Z,15.82
2023-04-18T13:16:26.737Z,14.43
2023-04-18T13:18:53.681Z,14.00
2023-04-18T13:21:20.594Z,13.35
2023-04-18T13:23:47.543Z,12.77
2023-04-18T13:26:14.424Z,14.68
2023-04-18T13:28:41.279Z,14.32
2023-04-18T13:31:08.154Z,12.30
2023-04-18T13:33:36.250Z,12.52
2023-04-18T13:36:03.628Z,13.00
2023-04-18T13:38:30.986Z,13.15
2023-04-18T13:41:10.971Z,13.38
2023-04-18T13:43:39.428Z,13.98
2023-04-18T13:46:06.532Z,14.13
2023-04-18T13:48:34.955Z,12.93
2023-04-18T13:51:03.144Z,13.65
2023-04-18T13:53:31.129Z,14.23
2023-04-18T13:55:59.078Z,12.82
2023-04-18T13:58:25.984Z,13.45
2023-04-18T14:00:53.832Z,13.23
2023-04-18T14:03:21.107Z,13.00
2023-04-18T14:05:49.306Z,12.77
2023-04-18T14:08:16.165Z,12.60
2023-04-18T14:10:43.076Z,13.18
2023-04-18T14:13:09.946Z,13.13
2023-04-18T14:15:40.977Z,12.95
2023-04-18T14:18:07.951Z,12.57
2023-04-18T14:20:35.965Z,12.60
2023-04-18T14:23:02.878Z,13.43
2023-04-18T14:25:30.288Z,13.13
2023-04-18T14:28:09.798Z,13.45
2023-04-18T14:30:38.865Z,12.52
2023-04-18T14:33:07.210Z,13.35
2023-04-18T14:35:34.204Z,15.32
2023-04-18T14:38:01.074Z,15.13
2023-04-18T14:40:28.140Z,12.45
2023-04-18T14:42:55.076Z,13.02
2023-04-18T14:45:22.519Z,14.07
2023-04-18T14:47:49.507Z,14.55
2023-04-18T14:50:16.485Z,12.65
2023-04-18T14:52:44.291Z,13.10
2023-04-18T14:55:11.273Z,13.25
2023-04-18T14:57:39.645Z,12.60
2023-04-18T15:00:10.738Z,12.40
2023-04-18T15:02:41.138Z,13.50
2023-04-18T15:05:12.608Z,11.90
2023-04-18T15:07:40.749Z,11.90
2023-04-18T15:10:08.625Z,12.13
2023-04-18T15:12:35.766Z,11.07
2023-04-18T15:15:02.768Z,12.38
2023-04-18T15:17:29.746Z,11.30
2023-04-18T15:19:59.329Z,12.18
2023-04-18T15:22:26.243Z,11.45
2023-04-18T15:24:53.112Z,11.82
2023-04-18T15:27:19.963Z,12.00
2023-04-18T15:29:47.044Z,10.82
2023-04-18T15:32:14.436Z,11.15
2023-04-18T15:34:41.501Z,12.00
2023-04-18T15:37:08.493Z,11.45
2023-04-18T15:39:36.113Z,11.55
2023-04-18T15:42:03.334Z,12.10
2023-04-18T15:44:30.785Z,12.30
2023-04-18T15:47:00.515Z,12.60
2023-04-18T15:49:27.782Z,12.38
2023-04-18T15:51:54.748Z,13.27
2023-04-18T15:54:21.786Z,13.70
2023-04-18T15:56:48.733Z,12.45
2023-04-18T15:59:15.689Z,12.13
2023-04-18T16:01:45.238Z,13.35
2023-04-18T16:04:13.352Z,12.43
2023-04-18T16:06:40.714Z,12.10
2023-04-18T16:09:07.785Z,11.02
2023-04-18T16:11:34.676Z,11.32
2023-04-18T16:14:01.624Z,12.27
2023-04-18T16:16:28.586Z,21.40
2023-04-18T16:18:55.578Z,14.45
2023-04-18T16:21:22.430Z,11.88
2023-04-18T16:23:49.456Z,12.27
2023-04-18T16:26:16.412Z,12.40
2023-04-18T16:28:43.408Z,12.05
2023-04-18T16:31:10.449Z,11.55
2023-04-18T16:33:37.513Z,11.70
2023-04-18T16:36:05.511Z,11.52
2023-04-18T16:38:32.617Z,12.50
2023-04-18T16:41:01.497Z,11.77
2023-04-18T16:43:30.367Z,12.43
2023-04-18T16:45:58.009Z,12.07
2023-04-18T16:48:25.008Z,10.27
2023-04-18T16:50:51.963Z,10.10
2023-04-18T16:53:18.884Z,9.75
2023-04-18T16:55:46.015Z,8.80
2023-04-18T16:58:12.959Z,14.93
2023-04-18T17:00:40.067Z,10.73
2023-04-18T17:03:07.863Z,8.90
2023-04-18T17:05:34.841Z,7.65
2023-04-18T17:08:03.560Z,8.45
2023-04-18T17:10:30.751Z,7.05
2023-04-18T17:12:58.893Z,9.63
2023-04-18T17:15:27.339Z,8.35
2023-04-18T17:17:56.352Z,8.48
2023-04-18T17:20:23.831Z,7.43
2023-04-18T17:22:51.128Z,10.65
2023-04-18T17:25:18.226Z,11.07
2023-04-18T17:27:45.247Z,9.93
2023-04-18T17:30:12.605Z,7.43
2023-04-18T17:32:45.625Z,6.78
2023-04-18T17:37:42.955Z,7.38
2023-04-18T17:40:13.264Z,6.55
2023-04-18T17:42:40.375Z,6.75
2023-04-18T17:45:10.762Z,6.32
2023-04-18T17:47:37.866Z,6.82
2023-04-18T17:50:06.899Z,6.50
2023-04-18T17:52:33.885Z,7.18
2023-04-18T17:55:04.198Z,5.20
2023-04-18T17:57:33.517Z,6.18
2023-04-18T18:00:00.615Z,5.70
2023-04-18T18:02:28.463Z,5.82
2023-04-18T18:04:56.357Z,6.45
2023-04-18T18:07:23.298Z,6.30
2023-04-18T18:09:50.169Z,5.95
2023-04-18T18:12:17.243Z,5.03
2023-04-18T18:14:44.131Z,7.20
2023-04-18T18:17:11.577Z,5.95
2023-04-18T18:19:38.597Z,8.85
2023-04-18T18:22:05.680Z,6.50
2023-04-18T18:24:32.605Z,5.85
2023-04-18T18:26:59.715Z,6.43
2023-04-18T18:29:26.695Z,8.13
2023-04-18T18:31:53.597Z,6.68
2023-04-18T18:34:21.563Z,6.88
2023-04-18T18:36:48.630Z,6.63
2023-04-18T18:39:16.615Z,7.55
2023-04-18T18:41:43.734Z,7.78
2023-04-18T18:44:14.267Z,7.43
2023-04-18T18:46:42.717Z,6.63
2023-04-18T18:49:10.229Z,7.45
2023-04-18T18:51:37.403Z,6.50
2023-04-18T18:54:04.586Z,6.72
2023-04-18T18:56:31.460Z,6.75
2023-04-18T18:58:58.485Z,6.72
2023-04-18T19:01:25.433Z,6.72
2023-04-18T19:03:52.611Z,8.77
2023-04-18T19:06:19.614Z,7.63
2023-04-18T19:08:46.525Z,8.48
2023-04-18T19:11:13.453Z,7.85
2023-04-18T19:13:40.406Z,6.43
2023-04-18T19:16:07.358Z,7.82
2023-04-18T19:18:34.449Z,7.53
2023-04-18T19:21:02.263Z,7.20
2023-04-18T19:23:30.971Z,6.70
2023-04-18T19:25:58.290Z,7.90
2023-04-18T19:28:25.870Z,6.22
2023-04-18T19:30:53.117Z,5.93
2023-04-18T19:33:21.218Z,6.90
2023-04-18T19:35:48.164Z,6.82
2023-04-18T19:38:15.369Z,7.57
2023-04-18T19:40:42.758Z,5.53
2023-04-18T19:43:09.842Z,5.97
2023-04-18T19:45:36.870Z,6.03
2023-04-18T19:48:04.168Z,7.03
2023-04-18T19:50:31.286Z,7.35
2023-04-18T19:52:58.180Z,6.00
2023-04-18T19:55:25.338Z,5.22
2023-04-18T19:57:58.876Z,6.20
2023-04-18T20:00:26.061Z,7.18
2023-04-18T20:02:53.532Z,6.18
2023-04-18T20:05:20.912Z,5.22
2023-04-18T20:07:48.102Z,5.10
2023-04-18T20:10:14.979Z,5.25
2023-04-18T20:12:41.847Z,5.30
2023-04-18T20:15:09.476Z,5.13
2023-04-18T20:17:36.491Z,4.85
2023-04-18T20:20:04.538Z,5.47
2023-04-18T20:22:32.529Z,5.50
2023-04-18T20:24:59.781Z,5.38
2023-04-18T20:27:27.134Z,5.72
2023-04-18T20:29:56.060Z,5.50
2023-04-18T20:32:24.165Z,5.90
2023-04-18T20:34:51.413Z,5.30
2023-04-18T20:37:18.755Z,6.10
2023-04-18T20:39:47.688Z,5.72
2023-04-18T20:42:14.735Z,5.57
2023-04-18T20:44:46.959Z,8.40
2023-04-18T20:47:15.713Z,7.18
2023-04-18T20:49:43.156Z,5.22
2023-04-18T20:52:10.319Z,5.85
2023-04-18T20:54:37.464Z,5.32
2023-04-18T20:57:04.548Z,6.72
2023-04-18T20:59:31.449Z,6.22
2023-04-18T21:01:59.616Z,6.55
2023-04-18T21:04:27.678Z,6.97
2023-04-18T21:06:54.734Z,5.78
2023-04-18T21:09:21.683Z,5.90
2023-04-18T21:11:48.650Z,5.55
2023-04-18T21:14:17.217Z,5.97
2023-04-18T21:16:44.342Z,6.75
2023-04-18T21:19:11.580Z,6.53
2023-04-18T21:21:38.525Z,6.70
2023-04-18T21:24:05.851Z,7.72
2023-04-18T21:26:32.753Z,8.55
2023-04-18T21:29:02.574Z,8.05
2023-04-18T21:31:32.916Z,6.65
2023-04-18T21:34:03.089Z,6.70
2023-04-18T21:36:31.781Z,5.93
2023-04-18T21:39:01.015Z,5.15
2023-04-18T21:41:28.412Z,5.57
2023-04-18T21:43:55.516Z,5.90
2023-04-18T21:46:22.593Z,5.50
2023-04-18T21:48:49.624Z,5.55
2023-04-18T21:51:17.568Z,5.45
2023-04-18T21:53:44.866Z,5.45
2023-04-18T21:56:11.914Z,5.50
2023-04-18T21:58:38.846Z,6.43
2023-04-18T22:01:05.964Z,6.07
2023-04-18T22:03:34.350Z,6.65
2023-04-18T22:06:01.986Z,5.35
2023-04-18T22:08:29.523Z,6.00
2023-04-18T22:10:59.007Z,5.43
2023-04-18T22:13:33.037Z,5.72
2023-04-18T22:16:04.259Z,5.53
2023-04-18T22:18:37.644Z,5.63
2023-04-18T22:21:05.073Z,6.18
2023-04-18T22:23:32.094Z,6.55
2023-04-18T22:25:59.368Z,5.70
2023-04-18T22:28:29.857Z,5.72
2023-04-18T22:30:56.824Z,5.70
2023-04-18T22:33:24.420Z,5.22
2023-04-18T22:35:51.371Z,5.07
2023-04-18T22:38:18.309Z,5.85
2023-04-18T22:40:45.291Z,5.72
2023-04-18T22:43:12.226Z,5.82
2023-04-18T22:45:39.160Z,5.53
2023-04-18T22:48:11.240Z,4.75
2023-04-18T22:50:42.514Z,4.93
2023-04-18T22:53:14.091Z,5.53
2023-04-18T22:55:42.699Z,4.63
2023-04-18T22:58:11.157Z,4.53
2023-04-18T23:00:38.479Z,4.90
2023-04-18T23:03:05.860Z,4.97
2023-04-18T23:05:34.247Z,4.90
2023-04-18T23:08:01.612Z,5.25
2023-04-18T23:10:28.599Z,5.00
2023-04-18T23:12:55.568Z,4.82
2023-04-18T23:15:22.949Z,6.07
2023-04-18T23:17:54.948Z,4.70
2023-04-18T23:20:23.910Z,4.78
2023-04-18T23:22:51.726Z,5.65
2023-04-18T23:25:19.797Z,5.50
2023-04-18T23:27:47.009Z,4.85
2023-04-18T23:30:14.176Z,5.82
2023-04-18T23:32:41.146Z,4.97
2023-04-18T23:35:08.584Z,5.50
2023-04-18T23:37:35.499Z,4.82
2023-04-18T23:40:05.849Z,5.90
2023-04-18T23:42:35.756Z,4.55
2023-04-18T23:45:04.080Z,6.65
2023-04-18T23:47:31.011Z,5.60
2023-04-18T23:49:58.028Z,5.07
2023-04-18T23:52:24.973Z,6.13
2023-04-18T23:54:51.884Z,5.85
2023-04-18T23:57:18.853Z,7.32
2023-04-18T23:59:45.823Z,5.82
